createdAt,value
2018-10-12T00:00:12.277Z,16.30
2018-10-12T00:02:42.383Z,16.30
2018-10-12T00:05:12.543Z,16.20
2018-10-12T00:07:41.961Z,16.20
2018-10-12T00:10:10.934Z,16.20
2018-10-12T00:12:39.545Z,16.20
2018-10-12T00:15:08.333Z,16.20
2018-10-12T00:17:37.010Z,16.20
2018-10-12T00:20:06.625Z,16.20
2018-10-12T00:22:35.205Z,16.20
2018-10-12T00:25:03.685Z,16.20
2018-10-12T00:27:32.072Z,16.20
2018-10-12T00:30:00.972Z,16.20
2018-10-12T00:32:29.681Z,16.20
2018-10-12T00:34:58.304Z,16.20
2018-10-12T00:37:26.744Z,16.20
2018-10-12T00:39:55.246Z,16.20
2018-10-12T00:42:23.714Z,16.20
2018-10-12T00:44:52.098Z,16.30
2018-10-12T00:47:20.682Z,16.30
2018-10-12T00:49:49.258Z,16.30
2018-10-12T00:52:17.655Z,16.30
2018-10-12T00:54:46.097Z,16.30
2018-10-12T00:57:14.542Z,16.40
2018-10-12T00:59:43.610Z,16.30
2018-10-12T01:02:12.276Z,16.30
2018-10-12T01:04:40.783Z,16.30
2018-10-12T01:07:09.470Z,16.30
2018-10-12T01:09:38.102Z,16.30
2018-10-12T01:12:36.817Z,16.30
2018-10-12T01:15:05.937Z,16.30
2018-10-12T01:17:35.048Z,16.30
2018-10-12T01:20:04.166Z,16.30
2018-10-12T01:22:32.817Z,16.30
2018-10-12T01:25:02.310Z,16.30
2018-10-12T01:27:31.525Z,16.30
2018-10-12T01:30:00.065Z,16.20
2018-10-12T01:32:34.086Z,16.30
2018-10-12T01:35:02.951Z,16.20
2018-10-12T01:37:31.328Z,16.20
2018-10-12T01:40:00.083Z,16.10
2018-10-12T01:42:28.934Z,16.10
2018-10-12T01:44:57.529Z,16.10
2018-10-12T01:47:25.965Z,16.00
2018-10-12T01:49:54.664Z,16.00
2018-10-12T01:52:23.308Z,16.00
2018-10-12T01:54:51.688Z,16.00
2018-10-12T01:57:20.168Z,15.90
2018-10-12T01:59:48.866Z,15.90
2018-10-12T02:02:17.540Z,15.90
2018-10-12T02:04:46.233Z,15.80
2018-10-12T02:07:14.856Z,15.80
2018-10-12T02:09:43.297Z,15.70
2018-10-12T02:12:11.729Z,15.70
2018-10-12T02:14:40.134Z,15.70
2018-10-12T02:17:08.593Z,15.60
2018-10-12T02:19:37.430Z,15.60
2018-10-12T02:22:06.152Z,15.60
2018-10-12T02:24:34.564Z,15.50
2018-10-12T02:27:03.001Z,15.50
2018-10-12T02:29:31.413Z,15.50
2018-10-12T02:31:59.774Z,15.50
2018-10-12T02:34:28.256Z,15.50
2018-10-12T02:36:57.598Z,15.40
2018-10-12T02:39:26.056Z,15.40
2018-10-12T02:41:54.750Z,15.40
2018-10-12T02:44:23.214Z,15.40
2018-10-12T02:46:51.584Z,15.30
2018-10-12T02:49:20.025Z,15.20
2018-10-12T02:51:48.966Z,15.20
2018-10-12T02:54:17.522Z,15.20
2018-10-12T02:56:45.980Z,15.20
2018-10-12T02:59:14.390Z,15.10
2018-10-12T03:01:43.051Z,15.10
2018-10-12T03:04:11.498Z,15.10
2018-10-12T03:06:40.012Z,15.00
2018-10-12T03:09:10.084Z,15.00
2018-10-12T03:11:38.503Z,15.00
2018-10-12T03:14:07.218Z,14.90
2018-10-12T03:16:35.688Z,14.90
2018-10-12T03:19:04.871Z,14.90
2018-10-12T03:21:33.305Z,15.00
2018-10-12T03:24:02.169Z,14.90
2018-10-12T03:26:30.557Z,14.90
2018-10-12T03:28:59.169Z,14.90
2018-10-12T03:31:27.681Z,14.80
2018-10-12T03:33:56.200Z,14.80
2018-10-12T03:36:25.288Z,14.80
2018-10-12T03:38:54.029Z,14.80
2018-10-12T03:41:23.061Z,14.70
2018-10-12T03:43:51.963Z,14.70
2018-10-12T03:46:20.392Z,14.70
2018-10-12T03:48:48.938Z,14.70
2018-10-12T03:51:17.433Z,14.70
2018-10-12T03:53:45.915Z,14.60
2018-10-12T03:56:14.434Z,14.60
2018-10-12T03:58:43.056Z,14.60
2018-10-12T04:01:11.537Z,14.60
2018-10-12T04:03:40.049Z,14.60
2018-10-12T04:06:08.553Z,14.60
2018-10-12T04:08:37.422Z,14.50
2018-10-12T04:11:06.173Z,14.50
2018-10-12T04:13:35.001Z,14.50
2018-10-12T04:16:03.683Z,14.50
2018-10-12T04:18:32.174Z,14.40
2018-10-12T04:21:00.603Z,14.40
2018-10-12T04:23:29.043Z,14.40
2018-10-12T04:25:57.702Z,14.40
2018-10-12T04:28:26.154Z,14.40
2018-10-12T04:30:54.750Z,14.40
2018-10-12T04:33:23.424Z,14.40
2018-10-12T04:35:51.878Z,14.30
2018-10-12T04:38:20.331Z,14.40
2018-10-12T04:41:03.200Z,14.30
2018-10-12T04:43:32.614Z,14.30
2018-10-12T04:46:02.536Z,14.30
2018-10-12T04:48:31.248Z,14.30
2018-10-12T04:51:00.325Z,14.30
2018-10-12T04:53:28.865Z,14.20
2018-10-12T04:55:57.562Z,14.20
2018-10-12T04:58:26.456Z,14.20
2018-10-12T05:00:54.928Z,14.20
2018-10-12T05:03:23.353Z,14.20
2018-10-12T05:05:52.144Z,14.20
2018-10-12T05:08:20.619Z,14.20
2018-10-12T05:10:49.085Z,14.20
2018-10-12T05:13:17.494Z,14.10
2018-10-12T05:15:45.920Z,14.10
2018-10-12T05:18:14.368Z,14.10
2018-10-12T05:20:43.100Z,14.10
2018-10-12T05:23:11.515Z,14.10
2018-10-12T05:25:39.986Z,14.10
2018-10-12T05:28:08.885Z,14.10
2018-10-12T05:30:37.538Z,14.10
2018-10-12T05:33:06.127Z,14.10
2018-10-12T05:35:34.581Z,14.10
2018-10-12T05:38:03.265Z,14.10
2018-10-12T05:40:32.205Z,14.10
2018-10-12T05:43:01.472Z,14.10
2018-10-12T05:45:30.055Z,14.10
2018-10-12T05:48:09.739Z,14.10
2018-10-12T05:50:38.225Z,14.10
2018-10-12T05:53:07.009Z,14.10
2018-10-12T05:55:36.213Z,14.10
2018-10-12T05:58:04.945Z,14.10
2018-10-12T06:00:33.665Z,14.10
2018-10-12T06:03:02.143Z,14.10
2018-10-12T06:05:30.900Z,14.10
2018-10-12T06:07:59.825Z,14.00
2018-10-12T06:10:28.198Z,14.10
2018-10-12T06:12:56.966Z,14.10
2018-10-12T06:15:26.321Z,14.10
2018-10-12T06:17:55.005Z,14.10
2018-10-12T06:20:23.700Z,14.10
2018-10-12T06:22:52.677Z,14.10
2018-10-12T06:25:21.124Z,14.00
2018-10-12T06:27:49.606Z,14.10
2018-10-12T06:30:18.025Z,14.00
2018-10-12T06:32:46.580Z,14.10
2018-10-12T06:35:15.246Z,14.10
2018-10-12T06:37:44.250Z,14.10
2018-10-12T06:40:12.705Z,14.20
2018-10-12T06:42:41.512Z,14.20
2018-10-12T06:45:10.003Z,14.20
2018-10-12T06:47:38.743Z,14.20
2018-10-12T06:50:07.324Z,14.20
2018-10-12T06:52:35.942Z,14.20
2018-10-12T06:55:04.471Z,14.20
2018-10-12T06:57:32.920Z,14.20
2018-10-12T07:00:01.471Z,14.20
2018-10-12T07:02:30.806Z,14.20
2018-10-12T07:04:59.334Z,14.20
2018-10-12T07:07:28.051Z,14.20
2018-10-12T07:09:56.631Z,14.20
2018-10-12T07:12:25.165Z,14.20
2018-10-12T07:14:53.702Z,14.20
2018-10-12T07:17:22.099Z,14.20
2018-10-12T07:19:50.463Z,14.30
2018-10-12T07:22:18.945Z,14.30
2018-10-12T07:24:47.453Z,14.30
2018-10-12T07:27:15.885Z,14.30
2018-10-12T07:29:44.382Z,14.30
2018-10-12T07:32:13.125Z,14.30
2018-10-12T07:34:41.583Z,14.30
2018-10-12T07:37:10.227Z,14.30
2018-10-12T07:39:38.926Z,14.40
2018-10-12T07:42:07.886Z,14.40
2018-10-12T07:44:36.967Z,14.50
2018-10-12T07:47:05.520Z,14.50
2018-10-12T07:49:34.200Z,14.60
2018-10-12T07:52:02.663Z,14.60
2018-10-12T07:54:31.105Z,14.60
2018-10-12T07:57:04.761Z,14.70
2018-10-12T07:59:33.201Z,14.70
2018-10-12T08:02:02.030Z,14.70
2018-10-12T08:04:30.553Z,14.70
2018-10-12T08:06:58.981Z,14.70
2018-10-12T08:09:27.481Z,14.80
2018-10-12T08:11:55.969Z,14.80
2018-10-12T08:14:24.459Z,14.80
2018-10-12T08:16:52.947Z,14.80
2018-10-12T08:19:21.521Z,14.90
2018-10-12T08:21:50.018Z,14.90
2018-10-12T08:24:18.442Z,14.90
2018-10-12T08:26:47.197Z,15.00
2018-10-12T08:29:15.583Z,15.00
2018-10-12T08:31:44.331Z,15.10
2018-10-12T08:34:12.771Z,15.10
2018-10-12T08:36:41.229Z,15.10
2018-10-12T08:39:11.546Z,15.10
2018-10-12T08:41:40.580Z,15.20
2018-10-12T08:44:09.041Z,15.20
2018-10-12T08:46:37.509Z,15.20
2018-10-12T08:49:06.298Z,15.30
2018-10-12T08:51:35.345Z,15.30
2018-10-12T08:54:03.936Z,15.30
2018-10-12T08:56:32.362Z,15.40
2018-10-12T08:59:01.230Z,15.40
2018-10-12T09:01:29.727Z,15.50
2018-10-12T09:03:58.625Z,15.50
2018-10-12T09:06:26.999Z,15.60
2018-10-12T09:08:55.481Z,15.70
2018-10-12T09:11:23.963Z,15.80
2018-10-12T09:13:52.620Z,15.80
2018-10-12T09:16:21.172Z,15.90
2018-10-12T09:18:49.603Z,15.90
2018-10-12T09:21:18.302Z,16.00
2018-10-12T09:23:47.150Z,16.10
2018-10-12T09:26:15.624Z,16.10
2018-10-12T09:28:44.423Z,16.20
2018-10-12T09:31:12.959Z,16.30
2018-10-12T09:33:41.408Z,16.30
2018-10-12T09:36:09.854Z,16.30
2018-10-12T09:38:38.332Z,16.40
2018-10-12T09:41:06.940Z,16.40
2018-10-12T09:43:35.373Z,16.40
2018-10-12T09:46:03.782Z,16.50
2018-10-12T09:48:32.228Z,16.50
2018-10-12T09:51:00.745Z,16.50
2018-10-12T09:53:29.260Z,16.50
2018-10-12T09:55:57.799Z,16.50
2018-10-12T09:58:26.281Z,16.60
2018-10-12T10:00:59.941Z,16.60
2018-10-12T10:03:33.493Z,16.60
2018-10-12T10:06:02.418Z,16.60
2018-10-12T10:08:30.956Z,16.70
2018-10-12T10:10:59.595Z,16.70
2018-10-12T10:13:28.105Z,16.70
2018-10-12T10:15:56.873Z,16.80
2018-10-12T10:18:25.413Z,16.80
2018-10-12T10:20:53.914Z,16.90
2018-10-12T10:23:22.650Z,16.90
2018-10-12T10:25:51.205Z,16.90
2018-10-12T10:28:20.201Z,16.90
2018-10-12T10:30:48.856Z,17.00
2018-10-12T10:33:17.509Z,17.00
2018-10-12T10:35:46.374Z,17.00
2018-10-12T10:38:14.813Z,17.10
2018-10-12T10:40:43.226Z,17.10
2018-10-12T10:43:11.733Z,17.10
2018-10-12T10:45:40.458Z,17.10
2018-10-12T10:48:08.930Z,17.10
2018-10-12T10:50:38.260Z,17.10
2018-10-12T10:53:06.866Z,17.10
2018-10-12T10:55:35.457Z,17.20
2018-10-12T10:58:04.270Z,17.20
2018-10-12T11:00:32.789Z,17.30
2018-10-12T11:03:01.334Z,17.30
2018-10-12T11:05:29.893Z,17.40
2018-10-12T11:07:58.619Z,17.40
2018-10-12T11:10:27.201Z,17.50
2018-10-12T11:12:55.785Z,17.50
2018-10-12T11:15:24.577Z,17.50
2018-10-12T11:17:53.692Z,17.50
2018-10-12T11:20:22.118Z,17.60
2018-10-12T11:22:50.718Z,17.60
2018-10-12T11:25:19.185Z,17.70
2018-10-12T11:27:47.725Z,17.70
2018-10-12T11:30:16.197Z,17.70
2018-10-12T11:32:44.902Z,17.80
2018-10-12T11:35:13.268Z,17.80
2018-10-12T11:37:41.811Z,17.80
2018-10-12T11:40:10.493Z,17.90
2018-10-12T11:42:49.998Z,17.90
2018-10-12T11:45:18.731Z,17.90
2018-10-12T11:47:47.470Z,18.00
2018-10-12T11:50:16.190Z,18.00
2018-10-12T11:52:44.581Z,18.00
2018-10-12T11:55:13.068Z,18.00
2018-10-12T11:57:41.751Z,18.10
2018-10-12T12:00:10.231Z,18.10
2018-10-12T12:02:38.867Z,18.10
2018-10-12T12:05:07.729Z,18.20
2018-10-12T12:07:36.264Z,18.20
2018-10-12T12:10:04.950Z,18.30
2018-10-12T12:12:33.457Z,18.30
2018-10-12T12:15:02.537Z,18.40
2018-10-12T12:17:31.018Z,18.40
2018-10-12T12:19:59.400Z,18.50
2018-10-12T12:22:28.148Z,18.50
2018-10-12T12:24:56.590Z,18.50
2018-10-12T12:27:25.101Z,18.50
2018-10-12T12:29:53.530Z,18.50
2018-10-12T12:32:21.960Z,18.50
2018-10-12T12:34:50.512Z,18.60
2018-10-12T12:37:18.828Z,18.60
2018-10-12T12:39:47.201Z,18.60
2018-10-12T12:42:15.677Z,18.60
2018-10-12T12:44:44.307Z,18.60
2018-10-12T12:47:13.210Z,18.60
2018-10-12T12:49:41.846Z,18.60
2018-10-12T12:52:10.284Z,18.60
2018-10-12T12:54:39.570Z,18.60
2018-10-12T12:57:08.421Z,18.60
2018-10-12T12:59:36.923Z,18.60
2018-10-12T13:02:05.618Z,18.70
2018-10-12T13:04:34.192Z,18.70
2018-10-12T13:07:02.593Z,18.70
2018-10-12T13:09:31.291Z,18.70
2018-10-12T13:11:59.720Z,18.70
2018-10-12T13:14:28.846Z,18.70
2018-10-12T13:16:57.469Z,18.70
2018-10-12T13:19:26.277Z,18.80
2018-10-12T13:21:54.652Z,18.80
2018-10-12T13:24:23.008Z,18.80
2018-10-12T13:26:51.547Z,18.80
2018-10-12T13:29:19.904Z,18.80
2018-10-12T13:31:48.705Z,18.80
2018-10-12T13:34:17.129Z,18.70
2018-10-12T13:36:45.572Z,18.80
2018-10-12T13:39:14.501Z,18.80
2018-10-12T13:41:43.132Z,18.80
2018-10-12T13:44:11.798Z,18.90
2018-10-12T13:46:40.219Z,18.90
2018-10-12T13:49:08.836Z,19.00
2018-10-12T13:51:37.181Z,19.00
2018-10-12T13:54:06.022Z,19.10
2018-10-12T13:56:34.479Z,19.20
2018-10-12T13:59:02.836Z,19.30
2018-10-12T14:01:31.280Z,19.30
2018-10-12T14:03:59.950Z,19.30
2018-10-12T14:06:29.714Z,19.40
2018-10-12T14:08:58.591Z,19.40
2018-10-12T14:11:27.029Z,19.40
2018-10-12T14:13:55.360Z,19.30
2018-10-12T14:16:24.017Z,19.40
2018-10-12T14:18:52.787Z,19.30
2018-10-12T14:21:21.305Z,19.30
2018-10-12T14:23:49.754Z,19.30
2018-10-12T14:26:18.183Z,19.30
2018-10-12T14:28:47.062Z,19.30
2018-10-12T14:31:15.520Z,19.20
2018-10-12T14:33:43.921Z,19.20
2018-10-12T14:36:12.458Z,19.20
2018-10-12T14:38:41.185Z,19.20
2018-10-12T14:41:10.081Z,19.10
2018-10-12T14:43:38.814Z,19.20
2018-10-12T14:46:07.288Z,19.20
2018-10-12T14:48:35.818Z,19.20
2018-10-12T14:51:04.222Z,19.10
2018-10-12T14:53:32.735Z,19.10
2018-10-12T14:56:01.030Z,19.10
2018-10-12T14:58:29.536Z,19.10
2018-10-12T15:00:58.458Z,19.10
2018-10-12T15:03:27.257Z,19.10
2018-10-12T15:05:55.925Z,19.10
2018-10-12T15:08:24.544Z,19.20
2018-10-12T15:10:53.058Z,19.20
2018-10-12T15:13:21.424Z,19.20
2018-10-12T15:15:49.765Z,19.20
2018-10-12T15:18:18.216Z,19.20
2018-10-12T15:20:46.669Z,19.20
2018-10-12T15:23:15.146Z,19.20
2018-10-12T15:25:43.592Z,19.20
2018-10-12T15:28:12.025Z,19.30
2018-10-12T15:30:40.815Z,19.30
2018-10-12T15:33:09.524Z,19.30
2018-10-12T15:35:38.260Z,19.30
2018-10-12T15:38:06.772Z,19.30
2018-10-12T15:40:35.291Z,19.20
2018-10-12T15:43:03.720Z,19.30
2018-10-12T15:45:32.181Z,19.30
2018-10-12T15:48:00.615Z,19.30
2018-10-12T15:50:29.149Z,19.30
2018-10-12T15:52:57.959Z,19.30
2018-10-12T15:55:26.545Z,19.20
2018-10-12T15:57:55.210Z,19.20
2018-10-12T16:00:24.055Z,19.20
2018-10-12T16:02:52.633Z,19.20
2018-10-12T16:05:21.413Z,19.20
2018-10-12T16:07:50.367Z,19.10
2018-10-12T16:10:18.769Z,19.10
2018-10-12T16:12:47.249Z,19.10
2018-10-12T16:15:16.253Z,19.10
2018-10-12T16:17:44.908Z,19.10
2018-10-12T16:20:13.511Z,19.10
2018-10-12T16:22:42.427Z,19.10
2018-10-12T16:25:22.066Z,19.10
2018-10-12T16:27:51.041Z,19.10
2018-10-12T16:30:19.714Z,19.10
2018-10-12T16:32:48.149Z,19.00
2018-10-12T16:35:16.990Z,19.00
2018-10-12T16:37:45.933Z,19.00
2018-10-12T16:40:14.850Z,19.00
2018-10-12T16:42:43.244Z,19.00
2018-10-12T16:45:11.919Z,19.00
2018-10-12T16:47:40.406Z,18.90
2018-10-12T16:50:08.846Z,18.90
2018-10-12T16:52:37.469Z,18.90
2018-10-12T16:55:05.973Z,18.90
2018-10-12T16:57:35.978Z,18.90
2018-10-12T17:00:05.349Z,18.90
2018-10-12T17:02:33.874Z,18.90
2018-10-12T17:05:02.403Z,18.90
2018-10-12T17:07:31.094Z,18.90
2018-10-12T17:09:59.460Z,20.00
2018-10-12T17:12:29.202Z,18.90
2018-10-12T17:14:57.803Z,18.90
2018-10-12T17:17:26.485Z,18.90
2018-10-12T17:19:55.096Z,18.90
2018-10-12T17:22:23.580Z,18.90
2018-10-12T17:24:52.080Z,18.90
2018-10-12T17:27:20.580Z,18.90
2018-10-12T17:29:49.616Z,18.90
2018-10-12T17:32:18.054Z,18.80
2018-10-12T17:34:46.682Z,18.80
2018-10-12T17:37:15.124Z,18.80
2018-10-12T17:39:43.744Z,18.80
2018-10-12T17:42:15.506Z,18.80
2018-10-12T17:44:44.437Z,18.80
2018-10-12T17:47:13.318Z,18.80
2018-10-12T17:49:41.748Z,18.80
2018-10-12T17:52:10.590Z,18.80
2018-10-12T17:54:39.138Z,18.80
2018-10-12T17:57:07.886Z,18.70
2018-10-12T17:59:36.277Z,18.70
2018-10-12T18:02:04.788Z,18.70
2018-10-12T18:04:33.740Z,18.80
2018-10-12T18:07:02.886Z,18.70
2018-10-12T18:09:31.748Z,18.70
2018-10-12T18:12:00.416Z,18.70
2018-10-12T18:14:29.034Z,18.70
2018-10-12T18:16:58.111Z,18.70
2018-10-12T18:19:26.743Z,18.70
2018-10-12T18:21:55.529Z,18.70
2018-10-12T18:24:24.034Z,18.70
2018-10-12T18:26:52.461Z,18.70
2018-10-12T18:29:20.918Z,18.70
2018-10-12T18:31:49.283Z,18.70
2018-10-12T18:34:18.077Z,18.70
2018-10-12T18:36:46.640Z,18.70
2018-10-12T18:39:14.990Z,18.60
2018-10-12T18:41:43.869Z,18.60
2018-10-12T18:44:12.362Z,18.60
2018-10-12T18:46:41.705Z,18.60
2018-10-12T18:49:10.222Z,18.60
2018-10-12T18:51:38.718Z,18.60
2018-10-12T18:54:07.233Z,18.60
2018-10-12T18:56:35.836Z,18.60
2018-10-12T18:59:04.684Z,18.60
2018-10-12T19:01:33.352Z,18.60
2018-10-12T19:04:01.931Z,18.60
2018-10-12T19:06:32.371Z,18.60
2018-10-12T19:09:00.817Z,18.50
2018-10-12T19:11:29.408Z,18.50
2018-10-12T19:13:57.884Z,18.50
2018-10-12T19:16:26.963Z,18.50
2018-10-12T19:18:55.566Z,18.50
2018-10-12T19:21:24.841Z,18.50
2018-10-12T19:23:53.695Z,18.50
2018-10-12T19:26:22.192Z,18.50
2018-10-12T19:28:50.800Z,18.50
2018-10-12T19:31:19.405Z,18.50
2018-10-12T19:33:47.995Z,18.50
2018-10-12T19:36:16.598Z,18.50
2018-10-12T19:38:45.115Z,18.50
2018-10-12T19:41:13.765Z,18.50
2018-10-12T19:43:42.431Z,18.50
2018-10-12T19:46:11.261Z,18.50
2018-10-12T19:48:39.777Z,18.50
2018-10-12T19:51:08.286Z,18.40
2018-10-12T19:53:36.929Z,18.40
2018-10-12T19:56:05.800Z,18.40
2018-10-12T19:58:34.310Z,18.40
2018-10-12T20:01:02.845Z,18.40
2018-10-12T20:03:31.429Z,18.40
2018-10-12T20:06:00.014Z,18.40
2018-10-12T20:08:28.626Z,18.40
2018-10-12T20:10:57.169Z,18.40
2018-10-12T20:13:25.735Z,18.40
2018-10-12T20:15:54.281Z,18.40
2018-10-12T20:18:22.894Z,18.40
2018-10-12T20:20:51.527Z,18.40
2018-10-12T20:23:20.091Z,18.30
2018-10-12T20:25:48.655Z,18.40
2018-10-12T20:28:17.103Z,18.40
2018-10-12T20:30:45.563Z,18.40
2018-10-12T20:33:14.164Z,18.40
2018-10-12T20:35:42.680Z,18.40
2018-10-12T20:38:11.062Z,18.40
2018-10-12T20:40:39.540Z,18.50
2018-10-12T20:43:08.078Z,18.50
2018-10-12T20:45:36.596Z,18.50
2018-10-12T20:48:05.028Z,18.50
2018-10-12T20:50:34.302Z,18.50
2018-10-12T20:53:02.814Z,18.50
2018-10-12T20:55:31.237Z,18.50
2018-10-12T20:58:00.005Z,18.60
2018-10-12T21:00:28.832Z,18.60
2018-10-12T21:02:57.321Z,18.60
2018-10-12T21:05:26.205Z,18.60
2018-10-12T21:07:54.557Z,18.60
2018-10-12T21:10:22.949Z,18.60
2018-10-12T21:12:51.442Z,18.60
2018-10-12T21:15:19.890Z,18.60
2018-10-12T21:17:48.582Z,18.60
2018-10-12T21:20:17.383Z,18.60
2018-10-12T21:22:45.870Z,18.60
2018-10-12T21:25:14.767Z,18.50
2018-10-12T21:27:43.214Z,18.50
2018-10-12T21:30:11.664Z,18.50
2018-10-12T21:32:40.069Z,18.50
2018-10-12T21:35:08.973Z,18.50
2018-10-12T21:37:37.393Z,18.40
2018-10-12T21:40:05.930Z,18.40
2018-10-12T21:42:34.597Z,18.40
2018-10-12T21:45:03.267Z,18.40
2018-10-12T21:47:31.726Z,18.40
2018-10-12T21:50:00.369Z,18.40
2018-10-12T21:52:28.882Z,18.30
2018-10-12T21:54:57.257Z,18.30
2018-10-12T21:57:25.964Z,18.40
2018-10-12T21:59:55.005Z,18.40
2018-10-12T22:02:23.418Z,18.40
2018-10-12T22:04:52.041Z,18.40
2018-10-12T22:07:20.912Z,18.50
2018-10-12T22:09:49.582Z,18.50
2018-10-12T22:12:18.388Z,18.40
2018-10-12T22:14:47.158Z,18.40
2018-10-12T22:17:16.275Z,18.40
2018-10-12T22:19:44.987Z,18.40
2018-10-12T22:22:13.714Z,18.40
2018-10-12T22:24:42.258Z,18.40
2018-10-12T22:27:10.766Z,18.40
2018-10-12T22:29:39.486Z,18.30
2018-10-12T22:32:08.135Z,18.30
2018-10-12T22:34:36.722Z,18.30
2018-10-12T22:37:05.797Z,18.30
2018-10-12T22:39:34.482Z,18.20
2018-10-12T22:42:02.917Z,18.20
2018-10-12T22:44:31.379Z,18.20
2018-10-12T22:47:00.134Z,18.20
2018-10-12T22:49:28.803Z,18.20
2018-10-12T22:51:57.234Z,18.20
2018-10-12T22:54:25.664Z,18.20
2018-10-12T22:56:54.082Z,18.10
2018-10-12T22:59:22.622Z,18.10
2018-10-12T23:01:51.185Z,18.10
2018-10-12T23:04:20.001Z,18.10
2018-10-12T23:06:48.658Z,18.00
2018-10-12T23:09:17.069Z,18.00
2018-10-12T23:11:45.715Z,18.00
2018-10-12T23:14:14.386Z,18.00
2018-10-12T23:16:42.768Z,18.00
2018-10-12T23:19:11.562Z,17.90
2018-10-12T23:21:40.033Z,17.90
2018-10-12T23:24:08.402Z,17.90
2018-10-12T23:26:36.857Z,17.90
2018-10-12T23:29:05.480Z,17.90
2018-10-12T23:31:34.160Z,17.80
2018-10-12T23:34:05.768Z,17.80
2018-10-12T23:36:34.896Z,17.90
2018-10-12T23:39:04.856Z,17.90
2018-10-12T23:41:33.471Z,17.90
2018-10-12T23:44:01.851Z,17.80
2018-10-12T23:46:30.248Z,17.90
2018-10-12T23:48:58.622Z,17.90
2018-10-12T23:51:27.032Z,17.80
2018-10-12T23:53:55.523Z,17.80
2018-10-12T23:56:23.922Z,17.80
2018-10-12T23:58:52.285Z,17.80
